createdAt,value
2023-01-08T00:01:30.876Z,11.68
2023-01-08T00:04:00.388Z,11.66
2023-01-08T00:06:28.225Z,11.72
2023-01-08T00:08:56.013Z,11.75
2023-01-08T00:11:23.806Z,11.71
2023-01-08T00:13:51.931Z,11.74
2023-01-08T00:16:22.008Z,11.66
2023-01-08T00:18:49.885Z,11.58
2023-01-08T00:21:19.052Z,11.58
2023-01-08T00:23:47.075Z,11.65
2023-01-08T00:26:15.972Z,11.59
2023-01-08T00:28:43.931Z,11.69
2023-01-08T00:31:13.816Z,11.46
2023-01-08T00:33:42.375Z,11.68
2023-01-08T00:36:12.920Z,11.71
2023-01-08T00:38:42.730Z,11.72
2023-01-08T00:41:11.430Z,11.50
2023-01-08T00:43:39.725Z,11.67
2023-01-08T00:46:08.942Z,11.57
2023-01-08T00:48:38.659Z,11.63
2023-01-08T00:51:09.273Z,11.64
2023-01-08T00:53:38.432Z,11.69
2023-01-08T00:56:11.119Z,11.61
2023-01-08T00:58:40.004Z,11.67
2023-01-08T01:01:13.096Z,11.44
2023-01-08T01:03:41.401Z,11.52
2023-01-08T01:06:11.363Z,11.42
2023-01-08T01:08:39.192Z,11.54
2023-01-08T01:11:18.463Z,11.42
2023-01-08T01:13:46.391Z,11.72
2023-01-08T01:16:14.347Z,11.73
2023-01-08T01:18:42.305Z,11.72
2023-01-08T01:21:19.722Z,11.75
2023-01-08T01:23:48.010Z,11.68
2023-01-08T01:26:20.630Z,11.73
2023-01-08T01:28:50.765Z,11.68
2023-01-08T01:31:20.621Z,11.69
2023-01-08T01:33:49.195Z,11.67
2023-01-08T01:36:20.079Z,11.71
2023-01-08T01:38:50.429Z,11.65
2023-01-08T01:41:29.331Z,11.82
2023-01-08T01:43:59.237Z,11.71
2023-01-08T01:46:37.603Z,11.65
2023-01-08T01:49:12.707Z,11.70
2023-01-08T01:51:48.524Z,11.67
2023-01-08T01:54:18.683Z,11.59
2023-01-08T01:56:49.052Z,11.65
2023-01-08T01:59:17.829Z,11.59
2023-01-08T02:01:47.062Z,11.62
2023-01-08T02:04:16.030Z,11.70
2023-01-08T02:06:55.278Z,11.66
2023-01-08T02:09:35.558Z,11.63
2023-01-08T02:12:20.132Z,11.71
2023-01-08T02:15:03.884Z,11.68
2023-01-08T02:17:44.013Z,11.73
2023-01-08T02:20:18.212Z,11.73
2023-01-08T02:23:20.075Z,11.85
2023-01-08T02:26:22.999Z,11.81
2023-01-08T02:28:58.742Z,11.72
2023-01-08T02:31:30.786Z,11.62
2023-01-08T02:33:59.354Z,11.52
2023-01-08T02:36:35.733Z,11.75
2023-01-08T02:39:29.285Z,11.65
2023-01-08T02:42:12.296Z,11.85
2023-01-08T02:45:00.333Z,11.70
2023-01-08T02:47:36.466Z,11.77
2023-01-08T02:50:22.652Z,11.83
2023-01-08T02:53:03.548Z,11.65
2023-01-08T02:55:36.540Z,11.98
2023-01-08T02:58:07.516Z,11.78
2023-01-08T03:00:37.007Z,11.75
2023-01-08T03:03:14.006Z,11.64
2023-01-08T03:05:46.709Z,11.58
2023-01-08T03:08:15.075Z,11.82
2023-01-08T03:10:50.810Z,11.73
2023-01-08T03:13:26.742Z,11.60
2023-01-08T03:16:01.615Z,11.69
2023-01-08T03:18:37.105Z,11.60
2023-01-08T03:21:08.143Z,11.57
2023-01-08T03:23:39.798Z,11.63
2023-01-08T03:26:09.668Z,11.84
2023-01-08T03:28:44.593Z,11.69
2023-01-08T03:31:17.018Z,11.85
2023-01-08T03:33:48.301Z,11.87
2023-01-08T03:36:21.082Z,11.91
2023-01-08T03:38:57.447Z,12.06
2023-01-08T03:41:32.071Z,11.71
2023-01-08T03:44:01.351Z,11.54
2023-01-08T03:46:35.531Z,11.34
2023-01-08T03:49:07.459Z,11.30
2023-01-08T03:51:41.838Z,11.14
2023-01-08T03:54:14.479Z,11.10
2023-01-08T03:56:42.796Z,11.09
2023-01-08T03:59:13.983Z,11.10
2023-01-08T04:01:42.964Z,11.16
2023-01-08T04:04:12.891Z,11.01
2023-01-08T04:06:41.075Z,10.88
2023-01-08T04:09:09.140Z,10.75
2023-01-08T04:11:37.424Z,10.72
2023-01-08T04:14:05.230Z,10.66
2023-01-08T04:16:34.729Z,10.59
2023-01-08T04:19:02.701Z,10.53
2023-01-08T04:21:30.591Z,10.59
2023-01-08T04:23:58.680Z,10.33
2023-01-08T04:26:26.538Z,10.40
2023-01-08T04:28:54.327Z,10.18
2023-01-08T04:31:22.287Z,10.17
2023-01-08T04:33:51.752Z,9.97
2023-01-08T04:36:19.702Z,9.90
2023-01-08T04:38:47.745Z,9.70
2023-01-08T04:41:18.271Z,9.72
2023-01-08T04:43:46.615Z,9.74
2023-01-08T04:46:14.505Z,9.79
2023-01-08T04:48:42.351Z,9.72
2023-01-08T04:51:11.912Z,9.57
2023-01-08T04:53:41.183Z,9.76
2023-01-08T04:56:12.420Z,9.66
2023-01-08T04:58:40.926Z,9.78
2023-01-08T05:01:14.269Z,9.85
2023-01-08T05:03:42.137Z,9.64
2023-01-08T05:06:11.454Z,9.86
2023-01-08T05:08:39.342Z,9.88
2023-01-08T05:11:07.167Z,9.98
2023-01-08T05:13:35.036Z,10.04
2023-01-08T05:16:03.007Z,10.00
2023-01-08T05:18:31.552Z,10.01
2023-01-08T05:21:02.883Z,10.04
2023-01-08T05:23:33.494Z,10.17
2023-01-08T05:26:02.495Z,10.09
2023-01-08T05:28:31.191Z,10.05
2023-01-08T05:30:59.623Z,10.02
2023-01-08T05:33:27.915Z,10.03
2023-01-08T05:35:56.417Z,10.11
2023-01-08T05:38:24.407Z,10.09
2023-01-08T05:40:54.982Z,10.15
2023-01-08T05:43:22.927Z,10.03
2023-01-08T05:45:50.840Z,10.13
2023-01-08T05:48:18.714Z,10.13
2023-01-08T05:50:46.600Z,10.16
2023-01-08T05:53:14.363Z,10.17
2023-01-08T05:55:42.154Z,10.01
2023-01-08T05:58:12.131Z,10.00
2023-01-08T06:00:40.094Z,10.15
2023-01-08T06:03:07.952Z,10.31
2023-01-08T06:05:35.775Z,10.26
2023-01-08T06:08:03.594Z,9.93
2023-01-08T06:10:31.537Z,10.09
2023-01-08T06:12:59.430Z,10.29
2023-01-08T06:15:28.575Z,10.31
2023-01-08T06:17:57.164Z,10.05
2023-01-08T06:20:25.016Z,10.21
2023-01-08T06:22:54.996Z,10.25
2023-01-08T06:25:22.691Z,10.03
2023-01-08T06:27:52.420Z,10.17
2023-01-08T06:30:20.628Z,10.24
2023-01-08T06:32:49.779Z,10.20
2023-01-08T06:35:17.683Z,10.15
2023-01-08T06:37:45.469Z,10.15
2023-01-08T06:40:13.611Z,10.11
2023-01-08T06:42:43.188Z,10.08
2023-01-08T06:45:12.439Z,9.97
2023-01-08T06:47:40.379Z,10.18
2023-01-08T06:50:11.501Z,10.04
2023-01-08T06:52:39.536Z,9.91
2023-01-08T06:55:08.623Z,9.89
2023-01-08T06:57:36.349Z,9.87
2023-01-08T07:00:05.583Z,10.03
2023-01-08T07:02:33.549Z,10.14
2023-01-08T07:05:01.384Z,10.09
2023-01-08T07:07:30.732Z,10.28
2023-01-08T07:09:58.506Z,10.19
2023-01-08T07:12:26.575Z,10.10
2023-01-08T07:14:54.315Z,10.23
2023-01-08T07:17:22.387Z,10.23
2023-01-08T07:19:50.134Z,10.26
2023-01-08T07:22:17.925Z,10.16
2023-01-08T07:24:47.481Z,10.25
2023-01-08T07:27:15.479Z,10.33
2023-01-08T07:29:43.211Z,9.99
2023-01-08T07:32:11.022Z,10.07
2023-01-08T07:34:38.831Z,9.88
2023-01-08T07:37:06.654Z,9.95
2023-01-08T07:39:34.426Z,9.85
2023-01-08T07:42:03.613Z,9.93
2023-01-08T07:44:31.528Z,9.90
2023-01-08T07:46:59.432Z,9.93
2023-01-08T07:49:27.220Z,9.91
2023-01-08T07:51:55.050Z,9.67
2023-01-08T07:54:22.979Z,9.73
2023-01-08T07:56:50.786Z,9.51
2023-01-08T07:59:19.968Z,9.63
2023-01-08T08:01:48.030Z,9.54
2023-01-08T08:04:16.820Z,9.66
2023-01-08T08:06:44.625Z,9.57
2023-01-08T08:09:12.407Z,9.66
2023-01-08T08:11:40.164Z,9.67
2023-01-08T08:14:08.245Z,9.57
2023-01-08T08:16:37.417Z,9.70
2023-01-08T08:19:05.830Z,9.78
2023-01-08T08:21:33.820Z,9.68
2023-01-08T08:24:01.645Z,9.82
2023-01-08T08:26:29.414Z,10.33
2023-01-08T08:28:57.312Z,11.01
2023-01-08T08:31:25.232Z,11.01
2023-01-08T08:33:54.448Z,11.44
2023-01-08T08:36:22.538Z,11.57
2023-01-08T08:38:50.297Z,12.18
2023-01-08T08:41:18.799Z,12.11
2023-01-08T08:43:46.722Z,12.21
2023-01-08T08:46:14.542Z,12.34
2023-01-08T08:48:42.531Z,12.34
2023-01-08T08:51:12.005Z,12.85
2023-01-08T08:53:40.059Z,12.58
2023-01-08T08:56:08.886Z,12.53
2023-01-08T08:58:36.807Z,12.72
2023-01-08T09:01:05.995Z,12.84
2023-01-08T09:03:34.034Z,12.79
2023-01-08T09:06:01.886Z,13.14
2023-01-08T09:08:31.858Z,13.02
2023-01-08T09:11:03.831Z,12.87
2023-01-08T09:13:31.808Z,12.59
2023-01-08T09:15:59.812Z,12.98
2023-01-08T09:18:28.086Z,12.99
2023-01-08T09:20:55.861Z,13.26
2023-01-08T09:23:23.623Z,12.85
2023-01-08T09:26:01.201Z,12.67
2023-01-08T09:28:29.375Z,13.10
2023-01-08T09:30:57.633Z,13.14
2023-01-08T09:33:25.354Z,13.10
2023-01-08T09:35:53.496Z,13.09
2023-01-08T09:38:33.548Z,12.83
2023-01-08T09:41:18.740Z,12.64
2023-01-08T09:43:53.518Z,12.14
2023-01-08T09:46:25.848Z,12.05
2023-01-08T09:48:58.558Z,12.41
2023-01-08T09:51:35.498Z,11.79
2023-01-08T09:54:05.779Z,11.86
2023-01-08T09:56:36.563Z,12.03
2023-01-08T09:59:06.803Z,11.93
2023-01-08T10:01:39.381Z,12.30
2023-01-08T10:04:16.087Z,11.86
2023-01-08T10:06:51.285Z,12.06
2023-01-08T10:09:32.755Z,11.98
2023-01-08T10:12:06.303Z,12.10
2023-01-08T10:14:37.776Z,12.13
2023-01-08T10:17:18.451Z,12.24
2023-01-08T10:19:47.029Z,12.50
2023-01-08T10:22:20.057Z,12.42
2023-01-08T10:24:48.214Z,12.85
2023-01-08T10:27:20.725Z,12.72
2023-01-08T10:29:51.239Z,13.11
2023-01-08T10:32:30.085Z,12.79
2023-01-08T10:34:59.491Z,12.56
2023-01-08T10:37:30.625Z,12.40
2023-01-08T10:40:09.162Z,12.23
2023-01-08T10:42:38.619Z,11.88
2023-01-08T10:45:18.128Z,11.94
2023-01-08T10:47:50.543Z,11.71
2023-01-08T10:50:25.602Z,11.95
2023-01-08T10:52:55.987Z,11.97
2023-01-08T10:55:31.456Z,12.21
2023-01-08T10:58:03.463Z,12.39
2023-01-08T11:00:35.116Z,12.37
2023-01-08T11:03:07.883Z,12.42
2023-01-08T11:05:39.943Z,12.70
2023-01-08T11:08:17.646Z,12.69
2023-01-08T11:10:55.997Z,12.91
2023-01-08T11:13:26.349Z,13.12
2023-01-08T11:16:07.249Z,13.38
2023-01-08T11:18:46.317Z,13.30
2023-01-08T11:21:23.531Z,12.76
2023-01-08T11:24:12.358Z,12.40
2023-01-08T11:26:46.146Z,12.86
2023-01-08T11:29:18.755Z,12.67
2023-01-08T11:31:55.586Z,12.91
2023-01-08T11:34:32.768Z,12.81
2023-01-08T11:37:13.069Z,13.13
2023-01-08T11:39:41.078Z,13.36
2023-01-08T11:42:47.748Z,13.18
2023-01-08T11:45:33.614Z,13.53
2023-01-08T11:48:22.964Z,12.81
2023-01-08T11:51:16.576Z,12.78
2023-01-08T11:53:59.423Z,12.77
2023-01-08T11:56:54.245Z,12.48
2023-01-08T11:59:33.512Z,12.56
2023-01-08T12:02:23.702Z,12.25
2023-01-08T12:05:22.672Z,11.99
2023-01-08T12:08:00.919Z,12.62
2023-01-08T12:10:45.947Z,12.68
2023-01-08T12:13:42.026Z,12.69
2023-01-08T12:16:35.353Z,12.51
2023-01-08T12:19:27.404Z,12.95
2023-01-08T12:22:18.736Z,12.82
2023-01-08T12:25:27.440Z,12.64
2023-01-08T12:28:10.700Z,12.58
2023-01-08T12:31:01.679Z,12.46
2023-01-08T12:33:40.661Z,12.50
2023-01-08T12:36:17.087Z,12.46
2023-01-08T12:38:53.423Z,12.17
2023-01-08T12:41:21.314Z,12.18
2023-01-08T12:43:58.322Z,12.07
2023-01-08T12:46:31.547Z,11.99
2023-01-08T12:49:01.350Z,11.98
2023-01-08T12:51:42.046Z,12.09
2023-01-08T12:54:27.456Z,11.96
2023-01-08T12:57:04.214Z,12.11
2023-01-08T12:59:43.720Z,12.03
2023-01-08T13:02:25.893Z,12.57
2023-01-08T13:04:54.064Z,13.08
2023-01-08T13:07:38.641Z,13.39
2023-01-08T13:10:20.051Z,13.65
2023-01-08T13:12:55.067Z,13.62
2023-01-08T13:15:27.190Z,13.48
2023-01-08T13:17:58.526Z,13.90
2023-01-08T13:20:30.148Z,13.40
2023-01-08T13:23:03.040Z,13.82
2023-01-08T13:25:35.088Z,14.21
2023-01-08T13:28:19.600Z,14.23
2023-01-08T13:30:49.074Z,14.48
2023-01-08T13:33:41.824Z,14.55
2023-01-08T13:36:27.684Z,14.81
2023-01-08T13:39:20.327Z,14.70
2023-01-08T13:42:02.320Z,14.18
2023-01-08T13:44:34.357Z,13.63
2023-01-08T13:47:07.604Z,13.53
2023-01-08T13:49:43.502Z,12.60
2023-01-08T13:52:33.330Z,12.47
2023-01-08T13:55:06.701Z,12.36
2023-01-08T13:57:43.814Z,12.53
2023-01-08T14:00:24.211Z,12.18
2023-01-08T14:02:54.913Z,12.02
2023-01-08T14:05:30.064Z,12.04
2023-01-08T14:07:59.857Z,11.97
2023-01-08T14:10:30.810Z,11.87
2023-01-08T14:13:10.390Z,11.76
2023-01-08T14:15:40.175Z,11.77
2023-01-08T14:18:08.333Z,11.55
2023-01-08T14:20:40.012Z,11.56
2023-01-08T14:23:14.253Z,11.70
2023-01-08T14:25:43.753Z,11.44
2023-01-08T14:28:19.779Z,11.77
2023-01-08T14:30:52.725Z,12.06
2023-01-08T14:33:25.822Z,12.00
2023-01-08T14:35:55.500Z,11.54
2023-01-08T14:38:23.499Z,11.63
2023-01-08T14:41:03.902Z,11.48
2023-01-08T14:43:36.232Z,11.57
2023-01-08T14:46:04.325Z,11.63
2023-01-08T14:48:42.722Z,11.48
2023-01-08T14:51:17.556Z,11.17
2023-01-08T14:53:48.851Z,11.06
2023-01-08T14:56:23.793Z,11.13
2023-01-08T14:58:54.347Z,10.91
2023-01-08T15:01:26.718Z,11.10
2023-01-08T15:04:07.653Z,10.88
2023-01-08T15:06:36.047Z,10.77
2023-01-08T15:09:04.021Z,10.83
2023-01-08T15:11:49.097Z,10.53
2023-01-08T15:14:36.783Z,10.73
2023-01-08T15:17:12.549Z,10.66
2023-01-08T15:19:48.293Z,10.62
2023-01-08T15:22:21.222Z,10.67
2023-01-08T15:24:59.313Z,10.61
2023-01-08T15:27:31.382Z,10.51
2023-01-08T15:30:00.895Z,10.55
2023-01-08T15:32:32.426Z,10.62
2023-01-08T15:35:00.271Z,10.72
2023-01-08T15:37:30.225Z,10.66
2023-01-08T15:39:58.067Z,10.82
2023-01-08T15:42:50.019Z,10.82
2023-01-08T15:45:21.302Z,10.77
2023-01-08T15:47:50.474Z,10.72
2023-01-08T15:50:20.369Z,10.62
2023-01-08T15:52:48.688Z,10.76
2023-01-08T15:55:20.797Z,10.82
2023-01-08T15:57:50.570Z,10.75
2023-01-08T16:00:22.510Z,10.63
2023-01-08T16:02:53.033Z,10.73
2023-01-08T16:05:26.190Z,10.72
2023-01-08T16:07:54.057Z,10.67
2023-01-08T16:10:21.862Z,10.70
2023-01-08T16:12:51.498Z,10.65
2023-01-08T16:15:19.912Z,10.70
2023-01-08T16:17:47.777Z,10.56
2023-01-08T16:20:16.862Z,10.51
2023-01-08T16:22:45.200Z,10.49
2023-01-08T16:25:13.900Z,10.63
2023-01-08T16:27:43.042Z,10.50
2023-01-08T16:30:15.695Z,10.44
2023-01-08T16:32:44.218Z,10.43
2023-01-08T16:35:12.698Z,10.06
2023-01-08T16:37:40.480Z,10.31
2023-01-08T16:40:10.593Z,10.35
2023-01-08T16:42:38.806Z,10.19
2023-01-08T16:45:08.931Z,10.10
2023-01-08T16:47:40.229Z,10.13
2023-01-08T16:50:11.511Z,9.86
2023-01-08T16:52:39.718Z,10.04
2023-01-08T16:55:10.727Z,10.02
2023-01-08T16:57:38.540Z,9.98
2023-01-08T17:00:08.915Z,9.97
2023-01-08T17:02:36.661Z,9.88
2023-01-08T17:05:07.460Z,9.78
2023-01-08T17:07:36.072Z,9.86
2023-01-08T17:10:07.586Z,9.86
2023-01-08T17:12:35.739Z,9.64
2023-01-08T17:15:03.819Z,9.70
2023-01-08T17:17:31.652Z,9.63
2023-01-08T17:20:00.047Z,9.56
2023-01-08T17:22:29.283Z,9.66
2023-01-08T17:24:57.094Z,9.68
2023-01-08T17:27:25.178Z,9.64
2023-01-08T17:29:53.152Z,9.37
2023-01-08T17:32:21.598Z,9.21
2023-01-08T17:34:49.427Z,9.47
2023-01-08T17:37:17.231Z,9.41
2023-01-08T17:39:46.472Z,9.36
2023-01-08T17:42:27.727Z,9.52
2023-01-08T17:45:06.762Z,9.42
2023-01-08T17:47:35.046Z,9.28
2023-01-08T17:50:05.589Z,9.37
2023-01-08T17:52:33.680Z,9.38
2023-01-08T17:55:03.057Z,9.27
2023-01-08T17:57:31.682Z,9.28
2023-01-08T17:59:59.689Z,9.22
2023-01-08T18:02:27.678Z,9.18
2023-01-08T18:04:55.478Z,9.23
2023-01-08T18:07:24.321Z,9.27
2023-01-08T18:09:54.265Z,9.40
2023-01-08T18:12:23.587Z,9.30
2023-01-08T18:14:51.732Z,9.36
2023-01-08T18:17:19.622Z,9.16
2023-01-08T18:19:48.611Z,9.22
2023-01-08T18:22:16.572Z,9.33
2023-01-08T18:24:44.544Z,9.29
2023-01-08T18:27:12.441Z,9.19
2023-01-08T18:29:42.096Z,9.15
2023-01-08T18:32:09.865Z,9.10
2023-01-08T18:34:38.975Z,9.01
2023-01-08T18:37:06.968Z,9.11
2023-01-08T18:39:34.847Z,8.82
2023-01-08T18:42:20.004Z,8.92
2023-01-08T18:44:52.554Z,8.96
2023-01-08T18:47:20.558Z,8.98
2023-01-08T18:49:48.641Z,9.13
2023-01-08T18:52:16.713Z,9.17
2023-01-08T18:54:44.886Z,9.03
2023-01-08T18:57:12.737Z,9.01
2023-01-08T18:59:41.347Z,8.98
2023-01-08T19:02:21.337Z,9.16
2023-01-08T19:04:49.974Z,8.99
2023-01-08T19:07:19.136Z,8.98
2023-01-08T19:09:47.212Z,9.13
2023-01-08T19:12:15.326Z,9.20
2023-01-08T19:14:45.171Z,9.15
2023-01-08T19:17:15.999Z,9.08
2023-01-08T19:19:43.788Z,9.08
2023-01-08T19:22:11.631Z,9.04
2023-01-08T19:24:39.526Z,9.12
2023-01-08T19:27:07.742Z,9.09
2023-01-08T19:29:35.689Z,9.05
2023-01-08T19:32:03.663Z,8.99
2023-01-08T19:34:32.985Z,9.03
2023-01-08T19:37:01.132Z,9.01
2023-01-08T19:39:29.899Z,9.03
2023-01-08T19:42:29.970Z,9.09
2023-01-08T19:44:58.826Z,9.10
2023-01-08T19:47:26.743Z,9.22
2023-01-08T19:49:55.949Z,9.02
2023-01-08T19:52:24.097Z,9.16
2023-01-08T19:54:52.056Z,9.22
2023-01-08T19:57:19.881Z,9.08
2023-01-08T19:59:47.908Z,9.18
2023-01-08T20:02:15.932Z,9.09
2023-01-08T20:04:44.551Z,9.08
2023-01-08T20:07:15.044Z,8.98
2023-01-08T20:09:44.466Z,9.02
2023-01-08T20:12:13.931Z,9.09
2023-01-08T20:14:41.707Z,9.01
2023-01-08T20:17:11.671Z,9.10
2023-01-08T20:19:39.479Z,9.09
2023-01-08T20:22:07.346Z,9.25
2023-01-08T20:24:36.602Z,9.38
2023-01-08T20:27:04.677Z,9.27
2023-01-08T20:29:32.846Z,9.12
2023-01-08T20:32:01.263Z,9.22
2023-01-08T20:34:29.206Z,9.19
2023-01-08T20:36:57.532Z,9.47
2023-01-08T20:39:26.419Z,9.31
2023-01-08T20:42:04.317Z,9.32
2023-01-08T20:44:33.295Z,9.28
2023-01-08T20:47:01.591Z,9.22
2023-01-08T20:49:29.526Z,9.30
2023-01-08T20:51:59.607Z,9.27
2023-01-08T20:54:29.392Z,9.09
2023-01-08T20:57:00.803Z,9.01
2023-01-08T20:59:30.264Z,9.14
2023-01-08T21:01:58.658Z,8.78
2023-01-08T21:04:26.924Z,8.85
2023-01-08T21:06:54.876Z,8.73
2023-01-08T21:09:22.868Z,8.91
2023-01-08T21:11:51.183Z,8.86
2023-01-08T21:14:20.355Z,8.72
2023-01-08T21:16:48.325Z,8.75
2023-01-08T21:19:16.203Z,8.77
2023-01-08T21:21:45.637Z,8.84
2023-01-08T21:24:14.791Z,8.91
2023-01-08T21:26:42.598Z,8.79
2023-01-08T21:29:11.789Z,8.79
2023-01-08T21:31:41.108Z,8.80
2023-01-08T21:34:11.717Z,8.97
2023-01-08T21:36:40.019Z,8.89
2023-01-08T21:39:08.024Z,8.68
2023-01-08T21:41:53.465Z,8.97
2023-01-08T21:44:41.240Z,8.96
2023-01-08T21:47:13.862Z,8.98
2023-01-08T21:49:42.122Z,8.91
2023-01-08T21:52:28.130Z,8.89
2023-01-08T21:54:57.913Z,8.93
2023-01-08T21:57:27.741Z,8.92
2023-01-08T21:59:56.491Z,8.82
2023-01-08T22:02:26.161Z,9.09
2023-01-08T22:04:56.710Z,8.79
2023-01-08T22:07:25.200Z,9.01
2023-01-08T22:09:53.138Z,9.07
2023-01-08T22:12:22.628Z,8.84
2023-01-08T22:14:53.017Z,8.93
2023-01-08T22:17:21.387Z,8.97
2023-01-08T22:19:50.696Z,9.02
2023-01-08T22:22:18.750Z,9.12
2023-01-08T22:24:46.426Z,9.13
2023-01-08T22:27:14.472Z,9.03
2023-01-08T22:29:42.226Z,9.22
2023-01-08T22:32:10.220Z,9.19
2023-01-08T22:34:38.312Z,9.28
2023-01-08T22:37:08.506Z,9.25
2023-01-08T22:39:36.345Z,9.21
2023-01-08T22:42:04.458Z,9.35
2023-01-08T22:44:32.324Z,9.25
2023-01-08T22:47:02.626Z,9.44
2023-01-08T22:49:30.675Z,9.40
2023-01-08T22:51:58.875Z,9.42
2023-01-08T22:54:28.007Z,9.40
2023-01-08T22:56:56.493Z,9.57
2023-01-08T22:59:24.793Z,9.68
2023-01-08T23:01:52.597Z,9.55
2023-01-08T23:04:20.438Z,9.86
2023-01-08T23:06:48.661Z,9.98
2023-01-08T23:09:16.630Z,9.91
2023-01-08T23:11:46.098Z,9.60
2023-01-08T23:14:16.327Z,9.80
2023-01-08T23:16:44.662Z,9.76
2023-01-08T23:19:12.568Z,9.81
2023-01-08T23:21:40.563Z,9.86
2023-01-08T23:24:13.622Z,9.87
2023-01-08T23:26:42.269Z,9.73
2023-01-08T23:29:11.608Z,9.83
2023-01-08T23:31:40.052Z,9.90
2023-01-08T23:34:08.562Z,10.09
2023-01-08T23:36:36.985Z,10.08
2023-01-08T23:39:05.777Z,9.89
2023-01-08T23:41:35.213Z,9.88
2023-01-08T23:44:06.842Z,9.71
2023-01-08T23:46:37.507Z,9.98
2023-01-08T23:49:07.033Z,10.22
2023-01-08T23:51:35.212Z,9.72
2023-01-08T23:54:03.495Z,9.87
2023-01-08T23:56:31.993Z,10.04
2023-01-08T23:58:59.751Z,10.06
